BAW320X EHAM-EGLL
Flight info
| Callsign | BAW320X |
|---|---|
| Flight time | 0h 51m |
| Altitude | 23000 |
| Route | IDRID L980 LOGAN |
| Aircraft | A333/H-SDE3GHIJ2J3J5M1RVWXY/LB2D1 |
Departure
| Time | 2026-05-07 14:03 |
|---|---|
| Airport | Amsterdam Airport Schiphol (EHAM) |
Arrival
| Time | 2026-05-07 14:55 |
|---|---|
| Airport | London Heathrow Airport (EGLL) |
| Time | Latitude | Longitude | Altitude | Speed | Heading |
|---|---|---|---|---|---|
| 2026-05-07 13:20 | 52.31324 | 4.76662 | 9 ft | 0 kts | 124° |
| 2026-05-07 13:53 | 52.31333 | 4.76639 | 9 ft | 3 kts | 122° |
| 2026-05-07 13:53 | 52.31341 | 4.76611 | 12 ft | 3 kts | 99° |
| 2026-05-07 13:53 | 52.31343 | 4.76580 | 12 ft | 3 kts | 96° |
| 2026-05-07 13:54 | 52.31342 | 4.76547 | 13 ft | 3 kts | 54° |
| 2026-05-07 13:54 | 52.31335 | 4.76533 | 12 ft | 0 kts | 27° |
| 2026-05-07 13:57 | 52.31336 | 4.76533 | 12 ft | 0 kts | 27° |
| 2026-05-07 13:57 | 52.31342 | 4.76539 | 13 ft | 1 kts | 27° |
| 2026-05-07 13:57 | 52.31374 | 4.76566 | 12 ft | 6 kts | 29° |
| 2026-05-07 13:57 | 52.31419 | 4.76612 | 13 ft | 8 kts | 33° |
| 2026-05-07 13:58 | 52.31463 | 4.76656 | 14 ft | 8 kts | 26° |
| 2026-05-07 13:58 | 52.31519 | 4.76663 | 15 ft | 8 kts | 346° |
| 2026-05-07 13:58 | 52.31546 | 4.76610 | 18 ft | 8 kts | 289° |
| 2026-05-07 13:58 | 52.31551 | 4.76485 | 21 ft | 14 kts | 268° |
| 2026-05-07 13:59 | 52.31545 | 4.76321 | 22 ft | 16 kts | 267° |
| 2026-05-07 13:59 | 52.31539 | 4.76132 | 21 ft | 17 kts | 266° |
| 2026-05-07 13:59 | 52.31532 | 4.75938 | 25 ft | 18 kts | 267° |
| 2026-05-07 13:59 | 52.31524 | 4.75706 | 15 ft | 23 kts | 267° |
| 2026-05-07 14:00 | 52.31514 | 4.75446 | 15 ft | 23 kts | 266° |
| 2026-05-07 14:00 | 52.31508 | 4.75264 | 13 ft | 9 kts | 267° |
| 2026-05-07 14:00 | 52.31504 | 4.75152 | 14 ft | 10 kts | 267° |
| 2026-05-07 14:00 | 52.31501 | 4.75045 | 16 ft | 9 kts | 267° |
| 2026-05-07 14:01 | 52.31498 | 4.74946 | 18 ft | 9 kts | 266° |
| 2026-05-07 14:01 | 52.31493 | 4.74833 | 18 ft | 11 kts | 265° |
| 2026-05-07 14:01 | 52.31502 | 4.74715 | 19 ft | 9 kts | 302° |
| 2026-05-07 14:01 | 52.31549 | 4.74669 | 22 ft | 8 kts | 346° |
| 2026-05-07 14:02 | 52.31606 | 4.74664 | 23 ft | 8 kts | 3° |
| 2026-05-07 14:02 | 52.31653 | 4.74695 | 26 ft | 6 kts | 41° |
| 2026-05-07 14:02 | 52.31666 | 4.74745 | 25 ft | 7 kts | 77° |
| 2026-05-07 14:02 | 52.31674 | 4.74902 | 19 ft | 35 kts | 86° |
| 2026-05-07 14:03 | 52.31700 | 4.75705 | 21 ft | 104 kts | 87° |
| 2026-05-07 14:03 | 52.31754 | 4.77197 | 135 ft | 148 kts | 86° |
| 2026-05-07 14:03 | 52.31849 | 4.78897 | 750 ft | 150 kts | 76° |
| 2026-05-07 14:03 | 52.32438 | 4.80246 | 1290 ft | 152 kts | 26° |
| 2026-05-07 14:04 | 52.33532 | 4.80542 | 1518 ft | 170 kts | 355° |
| 2026-05-07 14:04 | 52.34770 | 4.80229 | 1769 ft | 192 kts | 348° |
| 2026-05-07 14:04 | 52.36181 | 4.79768 | 2112 ft | 218 kts | 348° |
| 2026-05-07 14:04 | 52.37703 | 4.79241 | 2699 ft | 233 kts | 341° |
| 2026-05-07 14:05 | 52.39170 | 4.77913 | 3208 ft | 251 kts | 316° |
| 2026-05-07 14:05 | 52.40050 | 4.75445 | 3995 ft | 258 kts | 281° |
| 2026-05-07 14:05 | 52.39994 | 4.72499 | 4895 ft | 261 kts | 259° |
| 2026-05-07 14:05 | 52.39583 | 4.69584 | 5824 ft | 265 kts | 256° |
| 2026-05-07 14:06 | 52.39116 | 4.66638 | 6728 ft | 269 kts | 255° |
| 2026-05-07 14:06 | 52.38649 | 4.63655 | 7682 ft | 273 kts | 256° |
| 2026-05-07 14:06 | 52.38183 | 4.60617 | 8628 ft | 277 kts | 256° |
| 2026-05-07 14:06 | 52.37721 | 4.57548 | 9541 ft | 281 kts | 256° |
| 2026-05-07 14:07 | 52.37255 | 4.54435 | 10368 ft | 288 kts | 256° |
| 2026-05-07 14:07 | 52.36762 | 4.51131 | 10782 ft | 310 kts | 256° |
| 2026-05-07 14:07 | 52.36238 | 4.47617 | 11295 ft | 325 kts | 256° |
| 2026-05-07 14:07 | 52.35694 | 4.43974 | 12019 ft | 332 kts | 256° |
| 2026-05-07 14:08 | 52.35142 | 4.40282 | 12653 ft | 337 kts | 256° |
| 2026-05-07 14:08 | 52.34582 | 4.36549 | 12957 ft | 339 kts | 256° |
| 2026-05-07 14:08 | 52.34018 | 4.32794 | 12997 ft | 340 kts | 256° |
| 2026-05-07 14:08 | 52.33451 | 4.29035 | 13000 ft | 341 kts | 256° |
| 2026-05-07 14:09 | 52.32885 | 4.25286 | 13085 ft | 342 kts | 256° |
| 2026-05-07 14:09 | 52.32310 | 4.21494 | 13621 ft | 346 kts | 256° |
| 2026-05-07 14:09 | 52.31690 | 4.17681 | 14436 ft | 348 kts | 252° |
| 2026-05-07 14:09 | 52.30652 | 4.14114 | 15196 ft | 351 kts | 237° |
| 2026-05-07 14:10 | 52.29218 | 4.10866 | 15904 ft | 354 kts | 232° |
| 2026-05-07 14:10 | 52.27694 | 4.07693 | 16599 ft | 358 kts | 232° |
| 2026-05-07 14:10 | 52.26147 | 4.04497 | 17271 ft | 362 kts | 232° |
| 2026-05-07 14:10 | 52.24578 | 4.01249 | 17912 ft | 365 kts | 232° |
| 2026-05-07 14:11 | 52.23004 | 3.97978 | 18533 ft | 369 kts | 232° |
| 2026-05-07 14:11 | 52.21409 | 3.94660 | 19148 ft | 373 kts | 232° |
| 2026-05-07 14:11 | 52.19803 | 3.91319 | 19731 ft | 376 kts | 232° |
| 2026-05-07 14:11 | 52.18213 | 3.88015 | 20308 ft | 379 kts | 232° |
| 2026-05-07 14:12 | 52.16578 | 3.84617 | 20855 ft | 383 kts | 232° |
| 2026-05-07 14:12 | 52.14945 | 3.81229 | 21393 ft | 386 kts | 232° |
| 2026-05-07 14:12 | 52.13258 | 3.77733 | 21831 ft | 389 kts | 232° |
| 2026-05-07 14:12 | 52.11616 | 3.74335 | 21996 ft | 382 kts | 232° |
| 2026-05-07 14:13 | 52.10001 | 3.70996 | 22000 ft | 371 kts | 232° |
| 2026-05-07 14:13 | 52.08415 | 3.67722 | 22001 ft | 367 kts | 232° |
| 2026-05-07 14:13 | 52.06837 | 3.64467 | 22000 ft | 366 kts | 232° |
| 2026-05-07 14:13 | 52.05259 | 3.61217 | 22001 ft | 367 kts | 232° |
| 2026-05-07 14:14 | 52.03678 | 3.57964 | 21993 ft | 367 kts | 232° |
| 2026-05-07 14:14 | 52.02125 | 3.54775 | 22000 ft | 367 kts | 232° |
| 2026-05-07 14:14 | 52.00545 | 3.51532 | 22002 ft | 367 kts | 232° |
| 2026-05-07 14:14 | 51.98980 | 3.48263 | 21999 ft | 367 kts | 233° |
| 2026-05-07 14:15 | 51.97457 | 3.44953 | 22001 ft | 367 kts | 234° |
| 2026-05-07 14:15 | 51.95952 | 3.41618 | 22002 ft | 367 kts | 234° |
| 2026-05-07 14:15 | 51.94452 | 3.38268 | 22000 ft | 367 kts | 234° |
| 2026-05-07 14:15 | 51.92957 | 3.34930 | 21999 ft | 366 kts | 234° |
| 2026-05-07 14:16 | 51.91468 | 3.31617 | 22002 ft | 364 kts | 234° |
| 2026-05-07 14:16 | 51.89986 | 3.28333 | 22002 ft | 366 kts | 234° |
| 2026-05-07 14:16 | 51.88480 | 3.25008 | 22000 ft | 366 kts | 234° |
| 2026-05-07 14:16 | 51.86971 | 3.21689 | 21999 ft | 366 kts | 234° |
| 2026-05-07 14:17 | 51.85666 | 3.18162 | 22002 ft | 366 kts | 246° |
| 2026-05-07 14:17 | 51.84878 | 3.14250 | 22000 ft | 366 kts | 257° |
| 2026-05-07 14:17 | 51.84405 | 3.10250 | 22000 ft | 366 kts | 261° |
| 2026-05-07 14:17 | 51.84073 | 3.06187 | 21997 ft | 366 kts | 263° |
| 2026-05-07 14:18 | 51.83818 | 3.02134 | 21994 ft | 359 kts | 264° |
| 2026-05-07 14:18 | 51.83596 | 2.98181 | 21991 ft | 348 kts | 265° |
| 2026-05-07 14:18 | 51.83381 | 2.94306 | 21994 ft | 345 kts | 265° |
| 2026-05-07 14:18 | 51.83156 | 2.90441 | 21999 ft | 345 kts | 264° |
| 2026-05-07 14:19 | 51.82919 | 2.86585 | 21996 ft | 345 kts | 264° |
| 2026-05-07 14:19 | 51.82671 | 2.82726 | 21999 ft | 345 kts | 264° |
| 2026-05-07 14:19 | 51.82416 | 2.78874 | 22000 ft | 345 kts | 264° |
| 2026-05-07 14:19 | 51.82157 | 2.75024 | 21996 ft | 345 kts | 264° |
| 2026-05-07 14:20 | 51.81894 | 2.71164 | 22001 ft | 345 kts | 264° |
| 2026-05-07 14:20 | 51.81631 | 2.67325 | 22002 ft | 345 kts | 264° |
| 2026-05-07 14:20 | 51.81366 | 2.63472 | 21996 ft | 345 kts | 263° |
| 2026-05-07 14:20 | 51.81100 | 2.59627 | 22002 ft | 345 kts | 263° |
| 2026-05-07 14:21 | 51.80835 | 2.55805 | 21998 ft | 341 kts | 263° |
| 2026-05-07 14:21 | 51.80572 | 2.52037 | 21992 ft | 334 kts | 263° |
| 2026-05-07 14:21 | 51.80314 | 2.48347 | 21996 ft | 332 kts | 263° |
| 2026-05-07 14:21 | 51.80053 | 2.44634 | 21999 ft | 332 kts | 263° |
| 2026-05-07 14:22 | 51.79792 | 2.40939 | 22000 ft | 332 kts | 263° |
| 2026-05-07 14:22 | 51.79529 | 2.37231 | 22004 ft | 332 kts | 263° |
| 2026-05-07 14:22 | 51.79268 | 2.33559 | 21998 ft | 332 kts | 263° |
| 2026-05-07 14:22 | 51.79003 | 2.29858 | 22005 ft | 332 kts | 263° |
| 2026-05-07 14:23 | 51.78743 | 2.26238 | 22003 ft | 332 kts | 263° |
| 2026-05-07 14:23 | 51.78483 | 2.22535 | 21998 ft | 332 kts | 264° |
| 2026-05-07 14:23 | 51.78254 | 2.18784 | 22002 ft | 332 kts | 264° |
| 2026-05-07 14:23 | 51.78037 | 2.15078 | 22001 ft | 332 kts | 264° |
| 2026-05-07 14:24 | 51.77820 | 2.11366 | 21996 ft | 332 kts | 264° |
| 2026-05-07 14:24 | 51.77602 | 2.07672 | 21999 ft | 332 kts | 264° |
| 2026-05-07 14:24 | 51.77382 | 2.03950 | 22002 ft | 332 kts | 264° |
| 2026-05-07 14:24 | 51.77162 | 2.00249 | 22000 ft | 332 kts | 264° |
| 2026-05-07 14:25 | 51.76943 | 1.96605 | 21998 ft | 332 kts | 264° |
| 2026-05-07 14:25 | 51.76717 | 1.92848 | 22004 ft | 332 kts | 264° |
| 2026-05-07 14:25 | 51.76492 | 1.89139 | 22003 ft | 332 kts | 264° |
| 2026-05-07 14:25 | 51.76269 | 1.85486 | 22002 ft | 332 kts | 264° |
| 2026-05-07 14:26 | 51.76117 | 1.82987 | 21999 ft | 332 kts | 264° |
| 2026-05-07 14:26 | 51.75889 | 1.79278 | 22000 ft | 332 kts | 264° |
| 2026-05-07 14:26 | 51.75664 | 1.75646 | 21998 ft | 332 kts | 264° |
| 2026-05-07 14:26 | 51.75359 | 1.70731 | 21996 ft | 332 kts | 264° |
| 2026-05-07 14:27 | 51.75128 | 1.67030 | 21998 ft | 332 kts | 264° |
| 2026-05-07 14:27 | 51.74895 | 1.63329 | 22004 ft | 332 kts | 264° |
| 2026-05-07 14:27 | 51.74665 | 1.59687 | 21996 ft | 332 kts | 264° |
| 2026-05-07 14:27 | 51.74431 | 1.56008 | 21948 ft | 332 kts | 264° |
| 2026-05-07 14:28 | 51.74271 | 1.53496 | 21792 ft | 331 kts | 264° |
| 2026-05-07 14:28 | 51.74038 | 1.49855 | 21541 ft | 326 kts | 264° |
| 2026-05-07 14:28 | 51.73805 | 1.46243 | 21292 ft | 322 kts | 264° |
| 2026-05-07 14:28 | 51.73574 | 1.42657 | 21040 ft | 321 kts | 264° |
| 2026-05-07 14:29 | 51.73343 | 1.39098 | 20785 ft | 320 kts | 264° |
| 2026-05-07 14:29 | 51.73111 | 1.35543 | 20578 ft | 319 kts | 264° |
| 2026-05-07 14:29 | 51.72875 | 1.31996 | 20240 ft | 318 kts | 263° |
| 2026-05-07 14:29 | 51.72635 | 1.28445 | 19837 ft | 318 kts | 263° |
| 2026-05-07 14:30 | 51.72395 | 1.24909 | 19435 ft | 318 kts | 264° |
| 2026-05-07 14:30 | 51.72163 | 1.21413 | 19070 ft | 316 kts | 263° |
| 2026-05-07 14:30 | 51.71928 | 1.17899 | 18703 ft | 315 kts | 263° |
| 2026-05-07 14:30 | 51.71698 | 1.14475 | 18355 ft | 313 kts | 263° |
| 2026-05-07 14:31 | 51.71463 | 1.10995 | 17989 ft | 311 kts | 263° |
| 2026-05-07 14:31 | 51.71227 | 1.07530 | 17637 ft | 310 kts | 263° |
| 2026-05-07 14:31 | 51.70992 | 1.04081 | 17187 ft | 310 kts | 263° |
| 2026-05-07 14:31 | 51.70758 | 1.00665 | 16713 ft | 304 kts | 263° |
| 2026-05-07 14:32 | 51.70529 | 0.97317 | 16316 ft | 299 kts | 263° |
| 2026-05-07 14:32 | 51.70300 | 0.93992 | 15912 ft | 297 kts | 263° |
| 2026-05-07 14:32 | 51.70072 | 0.90690 | 15605 ft | 296 kts | 263° |
| 2026-05-07 14:32 | 51.69843 | 0.87393 | 15283 ft | 296 kts | 263° |
| 2026-05-07 14:33 | 51.69616 | 0.84146 | 14962 ft | 294 kts | 263° |
| 2026-05-07 14:33 | 51.69387 | 0.80884 | 14641 ft | 292 kts | 263° |
| 2026-05-07 14:33 | 51.69159 | 0.77648 | 14311 ft | 290 kts | 263° |
| 2026-05-07 14:33 | 51.68934 | 0.74456 | 13984 ft | 288 kts | 263° |
| 2026-05-07 14:34 | 51.68707 | 0.71255 | 13660 ft | 287 kts | 263° |
| 2026-05-07 14:34 | 51.68481 | 0.68076 | 13335 ft | 285 kts | 263° |
| 2026-05-07 14:34 | 51.68255 | 0.64907 | 13004 ft | 284 kts | 263° |
| 2026-05-07 14:34 | 51.68031 | 0.61778 | 12692 ft | 283 kts | 263° |
| 2026-05-07 14:35 | 51.67808 | 0.58670 | 12363 ft | 281 kts | 263° |
| 2026-05-07 14:35 | 51.67583 | 0.55554 | 12036 ft | 280 kts | 263° |
| 2026-05-07 14:35 | 51.67355 | 0.52415 | 11708 ft | 283 kts | 263° |
| 2026-05-07 14:35 | 51.67124 | 0.49236 | 11397 ft | 289 kts | 263° |
| 2026-05-07 14:36 | 51.66887 | 0.45998 | 11079 ft | 292 kts | 263° |
| 2026-05-07 14:36 | 51.66648 | 0.42746 | 10749 ft | 292 kts | 263° |
| 2026-05-07 14:36 | 51.66408 | 0.39501 | 10428 ft | 290 kts | 263° |
| 2026-05-07 14:36 | 51.66170 | 0.36283 | 10098 ft | 289 kts | 263° |
| 2026-05-07 14:37 | 51.65934 | 0.33103 | 9773 ft | 287 kts | 263° |
| 2026-05-07 14:37 | 51.65461 | 0.26766 | 9129 ft | 285 kts | 263° |
| 2026-05-07 14:37 | 51.65350 | 0.25281 | 8975 ft | 284 kts | 263° |
| 2026-05-07 14:38 | 51.65112 | 0.22125 | 8638 ft | 283 kts | 263° |
| 2026-05-07 14:38 | 51.64876 | 0.18988 | 8304 ft | 281 kts | 263° |
| 2026-05-07 14:38 | 51.64645 | 0.15867 | 7983 ft | 280 kts | 264° |
| 2026-05-07 14:38 | 51.64459 | 0.12772 | 7592 ft | 279 kts | 264° |
| 2026-05-07 14:39 | 51.64291 | 0.09691 | 7235 ft | 276 kts | 265° |
| 2026-05-07 14:39 | 51.64125 | 0.06616 | 6871 ft | 275 kts | 265° |
| 2026-05-07 14:39 | 51.63961 | 0.03570 | 6520 ft | 273 kts | 265° |
| 2026-05-07 14:39 | 51.63796 | 0.00532 | 6141 ft | 272 kts | 265° |
| 2026-05-07 14:40 | 51.63632 | -0.02486 | 5769 ft | 270 kts | 265° |
| 2026-05-07 14:40 | 51.63467 | -0.05491 | 5391 ft | 269 kts | 265° |
| 2026-05-07 14:40 | 51.63304 | -0.08440 | 5033 ft | 267 kts | 264° |
| 2026-05-07 14:40 | 51.63140 | -0.11401 | 4760 ft | 263 kts | 264° |
| 2026-05-07 14:41 | 51.62980 | -0.14272 | 4611 ft | 253 kts | 264° |
| 2026-05-07 14:41 | 51.62826 | -0.17008 | 4509 ft | 243 kts | 264° |
| 2026-05-07 14:41 | 51.62677 | -0.19673 | 4354 ft | 236 kts | 264° |
| 2026-05-07 14:41 | 51.62531 | -0.22267 | 4136 ft | 233 kts | 264° |
| 2026-05-07 14:42 | 51.62385 | -0.24855 | 3974 ft | 230 kts | 264° |
| 2026-05-07 14:42 | 51.62240 | -0.27404 | 3963 ft | 229 kts | 264° |
| 2026-05-07 14:42 | 51.62094 | -0.29962 | 3949 ft | 230 kts | 264° |
| 2026-05-07 14:42 | 51.61947 | -0.32536 | 3945 ft | 231 kts | 264° |
| 2026-05-07 14:43 | 51.61799 | -0.35110 | 3945 ft | 231 kts | 264° |
| 2026-05-07 14:43 | 51.61650 | -0.37685 | 3945 ft | 231 kts | 264° |
| 2026-05-07 14:43 | 51.61501 | -0.40253 | 3945 ft | 231 kts | 264° |
| 2026-05-07 14:43 | 51.61352 | -0.42813 | 3946 ft | 231 kts | 264° |
| 2026-05-07 14:44 | 51.61202 | -0.45387 | 3946 ft | 231 kts | 264° |
| 2026-05-07 14:44 | 51.61052 | -0.47967 | 3948 ft | 231 kts | 264° |
| 2026-05-07 14:44 | 51.60900 | -0.50537 | 3943 ft | 231 kts | 264° |
| 2026-05-07 14:44 | 51.60748 | -0.53111 | 3946 ft | 231 kts | 264° |
| 2026-05-07 14:45 | 51.60594 | -0.55685 | 3943 ft | 231 kts | 264° |
| 2026-05-07 14:45 | 51.60440 | -0.58259 | 3946 ft | 231 kts | 264° |
| 2026-05-07 14:45 | 51.60287 | -0.60833 | 3943 ft | 229 kts | 264° |
| 2026-05-07 14:45 | 51.60140 | -0.63293 | 3849 ft | 216 kts | 264° |
| 2026-05-07 14:46 | 51.59996 | -0.65653 | 3721 ft | 209 kts | 264° |
| 2026-05-07 14:46 | 51.59861 | -0.67929 | 3596 ft | 200 kts | 264° |
| 2026-05-07 14:46 | 51.59728 | -0.70145 | 3468 ft | 198 kts | 264° |
| 2026-05-07 14:46 | 51.59594 | -0.72346 | 3352 ft | 198 kts | 264° |
| 2026-05-07 14:47 | 51.59459 | -0.74549 | 3215 ft | 198 kts | 264° |
| 2026-05-07 14:47 | 51.59200 | -0.76712 | 3101 ft | 197 kts | 252° |
| 2026-05-07 14:47 | 51.58571 | -0.78657 | 2977 ft | 196 kts | 233° |
| 2026-05-07 14:47 | 51.57577 | -0.80138 | 2848 ft | 196 kts | 213° |
| 2026-05-07 14:48 | 51.56322 | -0.80988 | 2740 ft | 197 kts | 193° |
| 2026-05-07 14:48 | 51.54954 | -0.81109 | 2558 ft | 197 kts | 174° |
| 2026-05-07 14:48 | 51.53603 | -0.80698 | 2456 ft | 199 kts | 167° |
| 2026-05-07 14:48 | 51.52265 | -0.80172 | 2433 ft | 197 kts | 166° |
| 2026-05-07 14:49 | 51.51013 | -0.79617 | 2436 ft | 181 kts | 161° |
| 2026-05-07 14:49 | 51.49916 | -0.78731 | 2432 ft | 172 kts | 145° |
| 2026-05-07 14:49 | 51.49023 | -0.77504 | 2453 ft | 168 kts | 136° |
| 2026-05-07 14:49 | 51.48231 | -0.76132 | 2453 ft | 168 kts | 126° |
| 2026-05-07 14:50 | 51.47775 | -0.74416 | 2435 ft | 168 kts | 104° |
| 2026-05-07 14:50 | 51.47615 | -0.72565 | 2444 ft | 168 kts | 92° |
| 2026-05-07 14:50 | 51.47602 | -0.70691 | 2444 ft | 168 kts | 90° |
| 2026-05-07 14:50 | 51.47611 | -0.68818 | 2460 ft | 165 kts | 89° |
| 2026-05-07 14:51 | 51.47621 | -0.67101 | 2352 ft | 147 kts | 89° |
| 2026-05-07 14:51 | 51.47622 | -0.65528 | 2164 ft | 137 kts | 89° |
| 2026-05-07 14:51 | 51.47629 | -0.64013 | 1985 ft | 134 kts | 89° |
| 2026-05-07 14:51 | 51.47640 | -0.62521 | 1804 ft | 134 kts | 89° |
| 2026-05-07 14:52 | 51.47650 | -0.61025 | 1626 ft | 134 kts | 89° |
| 2026-05-07 14:52 | 51.47660 | -0.59535 | 1445 ft | 134 kts | 89° |
| 2026-05-07 14:52 | 51.47670 | -0.58042 | 1271 ft | 134 kts | 89° |
| 2026-05-07 14:52 | 51.47680 | -0.56558 | 1093 ft | 133 kts | 89° |
| 2026-05-07 14:53 | 51.47690 | -0.55079 | 915 ft | 132 kts | 89° |
| 2026-05-07 14:53 | 51.47706 | -0.53606 | 728 ft | 132 kts | 88° |
| 2026-05-07 14:53 | 51.47721 | -0.52131 | 528 ft | 132 kts | 89° |
| 2026-05-07 14:53 | 51.47725 | -0.50669 | 357 ft | 131 kts | 89° |
| 2026-05-07 14:54 | 51.47735 | -0.49209 | 210 ft | 130 kts | 89° |
| 2026-05-07 14:54 | 51.47746 | -0.47765 | 105 ft | 126 kts | 89° |
| 2026-05-07 14:54 | 51.47753 | -0.46539 | 100 ft | 85 kts | 88° |
| 2026-05-07 14:54 | 51.47759 | -0.45766 | 92 ft | 55 kts | 90° |
| 2026-05-07 14:55 | 51.47760 | -0.45362 | 95 ft | 25 kts | 89° |
| 2026-05-07 14:55 | 51.47736 | -0.45211 | 100 ft | 13 kts | 133° |
| 2026-05-07 14:55 | 51.47681 | -0.45173 | 100 ft | 0 kts | 179° |
| 2026-05-07 14:57 | 51.47672 | -0.45173 | 100 ft | 5 kts | 180° |
| 2026-05-07 14:57 | 51.47621 | -0.45196 | 97 ft | 9 kts | 213° |
| 2026-05-07 14:57 | 51.47599 | -0.45288 | 96 ft | 10 kts | 266° |
| 2026-05-07 14:57 | 51.47598 | -0.45423 | 95 ft | 14 kts | 269° |
| 2026-05-07 14:58 | 51.47597 | -0.45597 | 95 ft | 17 kts | 269° |
| 2026-05-07 14:58 | 51.47595 | -0.45792 | 95 ft | 18 kts | 269° |
| 2026-05-07 14:58 | 51.47594 | -0.46001 | 95 ft | 19 kts | 269° |
| 2026-05-07 14:58 | 51.47593 | -0.46218 | 99 ft | 19 kts | 270° |
| 2026-05-07 14:59 | 51.47595 | -0.46433 | 100 ft | 20 kts | 270° |
| 2026-05-07 14:59 | 51.47593 | -0.46659 | 97 ft | 21 kts | 268° |
| 2026-05-07 14:59 | 51.47587 | -0.46865 | 97 ft | 18 kts | 266° |
| 2026-05-07 14:59 | 51.47582 | -0.47074 | 98 ft | 20 kts | 270° |
| 2026-05-07 15:00 | 51.47582 | -0.47310 | 96 ft | 22 kts | 270° |
| 2026-05-07 15:00 | 51.47582 | -0.47558 | 95 ft | 22 kts | 270° |
| 2026-05-07 15:00 | 51.47581 | -0.47809 | 96 ft | 23 kts | 269° |
| 2026-05-07 15:00 | 51.47580 | -0.48019 | 97 ft | 14 kts | 270° |
| 2026-05-07 15:01 | 51.47580 | -0.48174 | 99 ft | 13 kts | 270° |
| 2026-05-07 15:01 | 51.47575 | -0.48302 | 98 ft | 10 kts | 249° |
| 2026-05-07 15:01 | 51.47507 | -0.48360 | 96 ft | 13 kts | 183° |
| 2026-05-07 15:01 | 51.47428 | -0.48361 | 93 ft | 10 kts | 179° |
| 2026-05-07 15:02 | 51.47366 | -0.48354 | 95 ft | 5 kts | 159° |
| 2026-05-07 15:02 | 51.47366 | -0.48327 | 96 ft | 5 kts | 82° |
| 2026-05-07 15:02 | 51.47375 | -0.48277 | 96 ft | 5 kts | 73° |
| 2026-05-07 15:02 | 51.47380 | -0.48220 | 97 ft | 3 kts | 87° |
| 2026-05-07 15:03 | 51.47380 | -0.48189 | 96 ft | 0 kts | 89° |